sensor_id;sensor_type;location;lat;lon;timestamp;pressure;altitude;pressure_sealevel;temperature;humidity
60061;BME280;45933;51.336;12.612;2023-11-21T00:02:12;99200.19;;;9.47;66.39
60061;BME280;45933;51.336;12.612;2023-11-21T00:04:37;99199.38;;;9.45;66.43
60061;BME280;45933;51.336;12.612;2023-11-21T00:07:03;99196.88;;;9.39;66.95
60061;BME280;45933;51.336;12.612;2023-11-21T00:09:28;99202.97;;;9.36;66.82
60061;BME280;45933;51.336;12.612;2023-11-21T00:11:53;99194.38;;;9.31;66.70
60061;BME280;45933;51.336;12.612;2023-11-21T00:14:19;99198.75;;;9.28;66.53
60061;BME280;45933;51.336;12.612;2023-11-21T00:16:44;99203.16;;;9.24;66.72
60061;BME280;45933;51.336;12.612;2023-11-21T00:19:09;99201.44;;;9.22;66.94
60061;BME280;45933;51.336;12.612;2023-11-21T00:21:34;99204.09;;;9.17;66.95
60061;BME280;45933;51.336;12.612;2023-11-21T00:24:00;99211.06;;;9.15;67.61
60061;BME280;45933;51.336;12.612;2023-11-21T00:26:25;99211.97;;;9.12;67.41
60061;BME280;45933;51.336;12.612;2023-11-21T00:28:50;99217.19;;;9.11;67.50
60061;BME280;45933;51.336;12.612;2023-11-21T00:31:16;99218.94;;;9.10;67.87
60061;BME280;45933;51.336;12.612;2023-11-21T00:33:41;99212.91;;;9.08;67.83
60061;BME280;45933;51.336;12.612;2023-11-21T00:36:07;99219.81;;;9.09;68.01
60061;BME280;45933;51.336;12.612;2023-11-21T00:38:35;99227.63;;;9.08;67.84
60061;BME280;45933;51.336;12.612;2023-11-21T00:41:01;99226.75;;;9.09;67.80
60061;BME280;45933;51.336;12.612;2023-11-21T00:43:26;99225.03;;;9.08;67.71
60061;BME280;45933;51.336;12.612;2023-11-21T00:45:51;99225.91;;;9.08;67.64
60061;BME280;45933;51.336;12.612;2023-11-21T00:48:17;99223.31;;;9.05;67.46
60061;BME280;45933;51.336;12.612;2023-11-21T00:50:43;99221.63;;;9.04;67.30
60061;BME280;45933;51.336;12.612;2023-11-21T00:53:09;99217.31;;;9.02;67.22
60061;BME280;45933;51.336;12.612;2023-11-21T00:55:34;99229.44;;;9.01;67.28
60061;BME280;45933;51.336;12.612;2023-11-21T00:58:00;99227.75;;;8.99;67.64
60061;BME280;45933;51.336;12.612;2023-11-21T01:00:27;99225.22;;;8.94;67.47
60061;BME280;45933;51.336;12.612;2023-11-21T01:02:53;99226.94;;;8.94;67.68
60061;BME280;45933;51.336;12.612;2023-11-21T01:05:18;99230.47;;;8.89;66.91
60061;BME280;45933;51.336;12.612;2023-11-21T01:07:44;99234.84;;;8.86;67.64
60061;BME280;45933;51.336;12.612;2023-11-21T01:10:10;99240.94;;;8.83;67.65
60061;BME280;45933;51.336;12.612;2023-11-21T01:12:37;99236.66;;;8.81;67.77
60061;BME280;45933;51.336;12.612;2023-11-21T01:15:04;99243.59;;;8.79;67.75
60061;BME280;45933;51.336;12.612;2023-11-21T01:17:32;99241.88;;;8.75;67.43
60061;BME280;45933;51.336;12.612;2023-11-21T01:19:59;99238.47;;;8.73;67.49
60061;BME280;45933;51.336;12.612;2023-11-21T01:22:25;99241.06;;;8.73;67.84
60061;BME280;45933;51.336;12.612;2023-11-21T01:24:54;99241.97;;;8.70;68.03
60061;BME280;45933;51.336;12.612;2023-11-21T01:27:19;99253.22;;;8.71;67.96
60061;BME280;45933;51.336;12.612;2023-11-21T01:29:45;99253.22;;;8.71;68.09
60061;BME280;45933;51.336;12.612;2023-11-21T01:32:10;99254.97;;;8.70;68.00
60061;BME280;45933;51.336;12.612;2023-11-21T01:34:36;99254.06;;;8.71;68.30
60061;BME280;45933;51.336;12.612;2023-11-21T01:37:01;99256.66;;;8.73;68.17
60061;BME280;45933;51.336;12.612;2023-11-21T01:39:27;99253.16;;;8.74;68.28
60061;BME280;45933;51.336;12.612;2023-11-21T01:41:53;99250.53;;;8.77;68.45
60061;BME280;45933;51.336;12.612;2023-11-21T01:44:18;99255.72;;;8.78;68.49
60061;BME280;45933;51.336;12.612;2023-11-21T01:46:45;99259.16;;;8.80;68.12
60061;BME280;45933;51.336;12.612;2023-11-21T01:49:12;99260.00;;;8.82;68.44
60061;BME280;45933;51.336;12.612;2023-11-21T01:51:39;99266.03;;;8.84;68.18
60061;BME280;45933;51.336;12.612;2023-11-21T01:54:05;99264.28;;;8.88;67.99
60061;BME280;45933;51.336;12.612;2023-11-21T01:56:31;99261.66;;;8.89;68.13
60061;BME280;45933;51.336;12.612;2023-11-21T01:58:57;99264.19;;;8.94;68.04
60061;BME280;45933;51.336;12.612;2023-11-21T02:01:22;99269.38;;;8.96;68.33
60061;BME280;45933;51.336;12.612;2023-11-21T02:03:47;99267.63;;;8.98;67.96
60061;BME280;45933;51.336;12.612;2023-11-21T02:06:13;99271.91;;;9.02;67.89
60061;BME280;45933;51.336;12.612;2023-11-21T02:08:38;99271.88;;;9.03;67.93
60061;BME280;45933;51.336;12.612;2023-11-21T02:11:05;99275.31;;;9.05;67.99
60061;BME280;45933;51.336;12.612;2023-11-21T02:13:30;99278.78;;;9.06;67.54
60061;BME280;45933;51.336;12.612;2023-11-21T02:15:56;99271.84;;;9.06;67.63
60061;BME280;45933;51.336;12.612;2023-11-21T02:18:21;99277.03;;;9.06;67.89
60061;BME280;45933;51.336;12.612;2023-11-21T02:20:47;99276.19;;;9.04;67.83
60061;BME280;45933;51.336;12.612;2023-11-21T02:23:12;99273.56;;;9.06;67.74
60061;BME280;45933;51.336;12.612;2023-11-21T02:25:38;99277.03;;;9.06;67.63
60061;BME280;45933;51.336;12.612;2023-11-21T02:28:03;99282.22;;;9.06;67.75
60061;BME280;45933;51.336;12.612;2023-11-21T02:30:30;99280.50;;;9.07;67.61
60061;BME280;45933;51.336;12.612;2023-11-21T02:32:58;99281.38;;;9.07;67.88
60061;BME280;45933;51.336;12.612;2023-11-21T02:35:23;99277.88;;;9.07;67.47
60061;BME280;45933;51.336;12.612;2023-11-21T02:37:49;99277.91;;;9.08;67.54
60061;BME280;45933;51.336;12.612;2023-11-21T02:40:15;99280.50;;;9.07;67.82
60061;BME280;45933;51.336;12.612;2023-11-21T02:42:44;99279.63;;;9.08;67.92
60061;BME280;45933;51.336;12.612;2023-11-21T02:45:09;99290.00;;;9.09;67.74
60061;BME280;45933;51.336;12.612;2023-11-21T02:47:37;99283.91;;;9.10;67.90
60061;BME280;45933;51.336;12.612;2023-11-21T02:50:03;99282.19;;;9.11;67.70
60061;BME280;45933;51.336;12.612;2023-11-21T02:52:29;99284.78;;;9.11;67.78
60061;BME280;45933;51.336;12.612;2023-11-21T02:54:54;99280.44;;;9.11;67.40
60061;BME280;45933;51.336;12.612;2023-11-21T02:57:19;99278.69;;;9.13;67.74
60061;BME280;45933;51.336;12.612;2023-11-21T02:59:45;99280.44;;;9.13;67.75
60061;BME280;45933;51.336;12.612;2023-11-21T03:02:10;99273.50;;;9.13;67.84
60061;BME280;45933;51.336;12.612;2023-11-21T03:04:35;99274.31;;;9.15;67.69
60061;BME280;45933;51.336;12.612;2023-11-21T03:07:01;99276.94;;;9.15;67.58
60061;BME280;45933;51.336;12.612;2023-11-21T03:09:26;99280.41;;;9.14;67.78
60061;BME280;45933;51.336;12.612;2023-11-21T03:11:52;99279.56;;;9.14;67.42
60061;BME280;45933;51.336;12.612;2023-11-21T03:14:17;99283.00;;;9.14;67.45
60061;BME280;45933;51.336;12.612;2023-11-21T03:16:43;99272.63;;;9.14;67.70
60061;BME280;45933;51.336;12.612;2023-11-21T03:19:10;99278.69;;;9.13;67.23
60061;BME280;45933;51.336;12.612;2023-11-21T03:21:35;99281.28;;;9.12;67.25
60061;BME280;45933;51.336;12.612;2023-11-21T03:24:01;99275.25;;;9.11;67.06
60061;BME280;45933;51.336;12.612;2023-11-21T03:26:27;99276.13;;;9.10;66.83
60061;BME280;45933;51.336;12.612;2023-11-21T03:28:52;99275.28;;;9.07;66.53
60061;BME280;45933;51.336;12.612;2023-11-21T03:31:18;99278.84;;;9.03;66.68
60061;BME280;45933;51.336;12.612;2023-11-21T03:33:44;99284.03;;;9.01;66.94
60061;BME280;45933;51.336;12.612;2023-11-21T03:36:11;99280.63;;;8.96;66.91
60061;BME280;45933;51.336;12.612;2023-11-21T03:38:36;99278.06;;;8.93;67.01
60061;BME280;45933;51.336;12.612;2023-11-21T03:41:02;99277.28;;;8.88;66.79
60061;BME280;45933;51.336;12.612;2023-11-21T03:43:29;99290.31;;;8.83;66.86
60061;BME280;45933;51.336;12.612;2023-11-21T03:45:54;99291.22;;;8.79;66.14
60061;BME280;45933;51.336;12.612;2023-11-21T03:48:19;99303.41;;;8.76;66.16
60061;BME280;45933;51.336;12.612;2023-11-21T03:50:45;99302.59;;;8.71;66.60
60061;BME280;45933;51.336;12.612;2023-11-21T03:53:10;99300.88;;;8.67;66.71
60061;BME280;45933;51.336;12.612;2023-11-21T03:55:36;99307.81;;;8.64;66.53
60061;BME280;45933;51.336;12.612;2023-11-21T03:58:01;99310.44;;;8.63;67.13
60061;BME280;45933;51.336;12.612;2023-11-21T04:00:28;99311.31;;;8.62;67.34
60061;BME280;45933;51.336;12.612;2023-11-21T04:02:53;99309.56;;;8.64;67.63
60061;BME280;45933;51.336;12.612;2023-11-21T04:05:20;99313.00;;;8.64;67.89
60061;BME280;45933;51.336;12.612;2023-11-21T04:07:46;99306.09;;;8.65;68.09
60061;BME280;45933;51.336;12.612;2023-11-21T04:10:11;99304.34;;;8.67;68.34
60061;BME280;45933;51.336;12.612;2023-11-21T04:12:38;99314.72;;;8.69;68.02
60061;BME280;45933;51.336;12.612;2023-11-21T04:15:04;99312.97;;;8.69;68.07
60061;BME280;45933;51.336;12.612;2023-11-21T04:17:29;99321.59;;;8.73;68.45
60061;BME280;45933;51.336;12.612;2023-11-21T04:19:54;99314.66;;;8.73;68.22
60061;BME280;45933;51.336;12.612;2023-11-21T04:22:20;99319.84;;;8.75;68.31
60061;BME280;45933;51.336;12.612;2023-11-21T04:24:45;99311.16;;;8.77;68.30
60061;BME280;45933;51.336;12.612;2023-11-21T04:27:10;99318.06;;;8.80;68.05
60061;BME280;45933;51.336;12.612;2023-11-21T04:29:35;99316.31;;;8.80;68.36
60061;BME280;45933;51.336;12.612;2023-11-21T04:32:01;99319.78;;;8.82;67.99
60061;BME280;45933;51.336;12.612;2023-11-21T04:34:27;99323.25;;;8.83;68.04
60061;BME280;45933;51.336;12.612;2023-11-21T04:36:55;99323.22;;;8.84;67.98
60061;BME280;45933;51.336;12.612;2023-11-21T04:39:20;99324.06;;;8.86;68.38
60061;BME280;45933;51.336;12.612;2023-11-21T04:41:45;99322.31;;;8.88;68.22
60061;BME280;45933;51.336;12.612;2023-11-21T04:44:10;99331.78;;;8.91;67.98
60061;BME280;45933;51.336;12.612;2023-11-21T04:46:36;99338.75;;;8.92;67.92
60061;BME280;45933;51.336;12.612;2023-11-21T04:49:01;99338.69;;;8.95;67.74
60061;BME280;45933;51.336;12.612;2023-11-21T04:51:26;99343.91;;;8.97;67.67
60061;BME280;45933;51.336;12.612;2023-11-21T04:53:52;99343.88;;;8.98;67.92
60061;BME280;45933;51.336;12.612;2023-11-21T04:56:17;99334.31;;;9.00;67.72
60061;BME280;45933;51.336;12.612;2023-11-21T04:58:43;99342.97;;;9.02;67.80
60061;BME280;45933;51.336;12.612;2023-11-21T05:01:08;99338.63;;;9.03;68.03
60061;BME280;45933;51.336;12.612;2023-11-21T05:03:33;99345.56;;;9.02;67.82
60061;BME280;45933;51.336;12.612;2023-11-21T05:06:02;99346.38;;;9.06;67.67
60061;BME280;45933;51.336;12.612;2023-11-21T05:08:28;99347.31;;;9.02;67.85
60061;BME280;45933;51.336;12.612;2023-11-21T05:10:53;99355.94;;;9.04;67.96
60061;BME280;45933;51.336;12.612;2023-11-21T05:13:20;99353.31;;;9.05;68.10
60061;BME280;45933;51.336;12.612;2023-11-21T05:15:45;99361.09;;;9.05;67.58
60061;BME280;45933;51.336;12.612;2023-11-21T05:18:10;99359.38;;;9.07;67.86
60061;BME280;45933;51.336;12.612;2023-11-21T05:20:36;99355.88;;;9.08;67.83
60061;BME280;45933;51.336;12.612;2023-11-21T05:23:03;99363.66;;;9.10;68.04
60061;BME280;45933;51.336;12.612;2023-11-21T05:25:28;99365.38;;;9.11;67.84
60061;BME280;45933;51.336;12.612;2023-11-21T05:27:53;99360.19;;;9.12;67.72
60061;BME280;45933;51.336;12.612;2023-11-21T05:30:21;99363.63;;;9.13;67.91
60061;BME280;45933;51.336;12.612;2023-11-21T05:32:46;99363.63;;;9.14;68.08
60061;BME280;45933;51.336;12.612;2023-11-21T05:35:11;99364.47;;;9.15;67.95
60061;BME280;45933;51.336;12.612;2023-11-21T05:37:40;99367.94;;;9.15;68.14
60061;BME280;45933;51.336;12.612;2023-11-21T05:40:07;99374.84;;;9.16;67.70
60061;BME280;45933;51.336;12.612;2023-11-21T05:42:33;99376.59;;;9.16;68.13
60061;BME280;45933;51.336;12.612;2023-11-21T05:44:59;99376.59;;;9.16;68.12
60061;BME280;45933;51.336;12.612;2023-11-21T05:47:35;99381.78;;;9.18;68.11
60061;BME280;45933;51.336;12.612;2023-11-21T05:50:00;99379.19;;;9.18;68.24
60061;BME280;45933;51.336;12.612;2023-11-21T05:52:26;99380.91;;;9.19;68.16
60061;BME280;45933;51.336;12.612;2023-11-21T05:54:51;99379.16;;;9.19;67.91
60061;BME280;45933;51.336;12.612;2023-11-21T05:57:16;99373.13;;;9.19;68.32
60061;BME280;45933;51.336;12.612;2023-11-21T05:59:42;99380.00;;;9.21;68.30
60061;BME280;45933;51.336;12.612;2023-11-21T06:02:07;99379.16;;;9.21;68.38
60061;BME280;45933;51.336;12.612;2023-11-21T06:04:32;99377.41;;;9.21;68.29
60061;BME280;45933;51.336;12.612;2023-11-21T06:06:58;99384.31;;;9.22;68.21
60061;BME280;45933;51.336;12.612;2023-11-21T06:09:24;99373.09;;;9.20;68.32
60061;BME280;45933;51.336;12.612;2023-11-21T06:11:50;99381.78;;;9.19;68.18
60061;BME280;45933;51.336;12.612;2023-11-21T06:14:15;99382.63;;;9.20;68.15
60061;BME280;45933;51.336;12.612;2023-11-21T06:16:43;99387.84;;;9.18;68.39
60061;BME280;45933;51.336;12.612;2023-11-21T06:19:10;99399.09;;;9.17;68.36
60061;BME280;45933;51.336;12.612;2023-11-21T06:21:35;99395.66;;;9.18;68.58
60061;BME280;45933;51.336;12.612;2023-11-21T06:24:00;99400.84;;;9.16;68.57
60061;BME280;45933;51.336;12.612;2023-11-21T06:26:27;99401.72;;;9.17;68.76
60061;BME280;45933;51.336;12.612;2023-11-21T06:28:52;99400.84;;;9.16;68.69
60061;BME280;45933;51.336;12.612;2023-11-21T06:31:19;99406.06;;;9.16;68.63
60061;BME280;45933;51.336;12.612;2023-11-21T06:33:44;99419.91;;;9.17;68.96
60061;BME280;45933;51.336;12.612;2023-11-21T06:36:09;99419.06;;;9.16;69.00
60061;BME280;45933;51.336;12.612;2023-11-21T06:38:36;99424.25;;;9.16;68.93
60061;BME280;45933;51.336;12.612;2023-11-21T06:41:02;99428.59;;;9.18;69.08
60061;BME280;45933;51.336;12.612;2023-11-21T06:43:27;99426.84;;;9.18;69.14
60061;BME280;45933;51.336;12.612;2023-11-21T06:45:52;99425.13;;;9.19;69.19
60061;BME280;45933;51.336;12.612;2023-11-21T06:48:18;99418.19;;;9.18;69.13
60061;BME280;45933;51.336;12.612;2023-11-21T06:50:43;99432.91;;;9.17;69.29
60061;BME280;45933;51.336;12.612;2023-11-21T06:53:09;99426.00;;;9.18;69.30
60061;BME280;45933;51.336;12.612;2023-11-21T06:55:35;99432.06;;;9.16;69.78
60061;BME280;45933;51.336;12.612;2023-11-21T06:58:00;99428.59;;;9.16;69.38
60061;BME280;45933;51.336;12.612;2023-11-21T07:00:26;99432.94;;;9.15;69.31
60061;BME280;45933;51.336;12.612;2023-11-21T07:02:54;99430.34;;;9.14;69.91
60061;BME280;45933;51.336;12.612;2023-11-21T07:05:21;99434.69;;;9.15;69.94
60061;BME280;45933;51.336;12.612;2023-11-21T07:07:46;99443.34;;;9.15;70.08
60061;BME280;45933;51.336;12.612;2023-11-21T07:10:13;99439.88;;;9.15;69.99
60061;BME280;45933;51.336;12.612;2023-11-21T07:12:39;99445.94;;;9.15;69.69
60061;BME280;45933;51.336;12.612;2023-11-21T07:15:05;99449.41;;;9.18;69.97
60061;BME280;45933;51.336;12.612;2023-11-21T07:17:34;99459.78;;;9.19;69.84
60061;BME280;45933;51.336;12.612;2023-11-21T07:20:00;99458.06;;;9.18;70.50
60061;BME280;45933;51.336;12.612;2023-11-21T07:22:25;99462.38;;;9.19;70.36
60061;BME280;45933;51.336;12.612;2023-11-21T07:24:51;99463.25;;;9.20;69.78
60061;BME280;45933;51.336;12.612;2023-11-21T07:27:17;99461.50;;;9.20;70.23
60061;BME280;45933;51.336;12.612;2023-11-21T07:29:42;99471.88;;;9.22;70.19
60061;BME280;45933;51.336;12.612;2023-11-21T07:32:08;99465.78;;;9.24;70.13
60061;BME280;45933;51.336;12.612;2023-11-21T07:34:34;99471.84;;;9.25;70.33
60061;BME280;45933;51.336;12.612;2023-11-21T07:36:59;99469.22;;;9.26;70.15
60061;BME280;45933;51.336;12.612;2023-11-21T07:39:25;99469.22;;;9.28;70.20
60061;BME280;45933;51.336;12.612;2023-11-21T07:41:50;99473.53;;;9.30;70.09
60061;BME280;45933;51.336;12.612;2023-11-21T07:44:18;99471.75;;;9.32;70.09
60061;BME280;45933;51.336;12.612;2023-11-21T07:46:45;99476.97;;;9.32;70.25
60061;BME280;45933;51.336;12.612;2023-11-21T07:49:10;99477.81;;;9.33;70.25
60061;BME280;45933;51.336;12.612;2023-11-21T07:51:36;99484.78;;;9.34;70.24
60061;BME280;45933;51.336;12.612;2023-11-21T07:54:01;99479.53;;;9.37;69.97
60061;BME280;45933;51.336;12.612;2023-11-21T07:56:26;99486.44;;;9.38;70.06
60061;BME280;45933;51.336;12.612;2023-11-21T07:58:52;99494.25;;;9.38;70.20
60061;BME280;45933;51.336;12.612;2023-11-21T08:01:17;99493.41;;;9.39;69.82
60061;BME280;45933;51.336;12.612;2023-11-21T08:03:43;99500.34;;;9.37;69.94
60061;BME280;45933;51.336;12.612;2023-11-21T08:06:09;99499.47;;;9.36;69.94
60061;BME280;45933;51.336;12.612;2023-11-21T08:08:34;99512.47;;;9.36;69.55
60061;BME280;45933;51.336;12.612;2023-11-21T08:11:00;99509.88;;;9.36;69.61
60061;BME280;45933;51.336;12.612;2023-11-21T08:13:28;99519.44;;;9.36;69.86
60061;BME280;45933;51.336;12.612;2023-11-21T08:15:57;99523.72;;;9.38;69.61
60061;BME280;45933;51.336;12.612;2023-11-21T08:18:26;99530.69;;;9.36;69.35
60061;BME280;45933;51.336;12.612;2023-11-21T08:20:52;99532.44;;;9.36;69.26
60061;BME280;45933;51.336;12.612;2023-11-21T08:23:17;99534.19;;;9.35;68.53
60061;BME280;45933;51.336;12.612;2023-11-21T08:25:45;99532.44;;;9.36;69.10
60061;BME280;45933;51.336;12.612;2023-11-21T08:28:11;99533.38;;;9.29;68.80
60061;BME280;45933;51.336;12.612;2023-11-21T08:30:37;99541.16;;;9.27;69.13
60061;BME280;45933;51.336;12.612;2023-11-21T08:33:02;99543.78;;;9.27;69.20
60061;BME280;45933;51.336;12.612;2023-11-21T08:35:29;99544.69;;;9.25;68.62
60061;BME280;45933;51.336;12.612;2023-11-21T08:37:54;99547.31;;;9.23;68.92
60061;BME280;45933;51.336;12.612;2023-11-21T08:40:20;99549.88;;;9.22;68.86
60061;BME280;45933;51.336;12.612;2023-11-21T08:42:46;99546.44;;;9.20;69.13
60061;BME280;45933;51.336;12.612;2023-11-21T08:45:11;99546.44;;;9.20;69.05
60061;BME280;45933;51.336;12.612;2023-11-21T08:47:38;99562.06;;;9.20;68.84
60061;BME280;45933;51.336;12.612;2023-11-21T08:50:07;99560.34;;;9.19;68.62
60061;BME280;45933;51.336;12.612;2023-11-21T08:52:34;99570.75;;;9.19;68.68
60061;BME280;45933;51.336;12.612;2023-11-21T08:54:59;99573.31;;;9.17;68.42
60061;BME280;45933;51.336;12.612;2023-11-21T08:57:28;99570.72;;;9.17;68.46
60061;BME280;45933;51.336;12.612;2023-11-21T08:59:53;99572.47;;;9.16;68.61
60061;BME280;45933;51.336;12.612;2023-11-21T09:02:21;99575.13;;;9.13;68.37
60061;BME280;45933;51.336;12.612;2023-11-21T09:04:48;99586.41;;;9.12;68.47
60061;BME280;45933;51.336;12.612;2023-11-21T09:07:13;99580.31;;;9.10;68.26
60061;BME280;45933;51.336;12.612;2023-11-21T09:09:38;99590.72;;;9.10;68.35
60061;BME280;45933;51.336;12.612;2023-11-21T09:12:04;99602.03;;;9.08;68.46
60061;BME280;45933;51.336;12.612;2023-11-21T09:14:29;99596.84;;;9.05;68.11
60061;BME280;45933;51.336;12.612;2023-11-21T09:16:55;99610.69;;;9.05;68.33
60061;BME280;45933;51.336;12.612;2023-11-21T09:19:21;99609.84;;;9.03;68.50
60061;BME280;45933;51.336;12.612;2023-11-21T09:21:46;99610.72;;;9.02;68.92
60061;BME280;45933;51.336;12.612;2023-11-21T09:24:12;99610.72;;;9.01;68.36
60061;BME280;45933;51.336;12.612;2023-11-21T09:26:37;99609.88;;;9.02;68.74
60061;BME280;45933;51.336;12.612;2023-11-21T09:29:02;99620.28;;;9.02;68.64
60061;BME280;45933;51.336;12.612;2023-11-21T09:31:27;99616.78;;;9.01;68.63
60061;BME280;45933;51.336;12.612;2023-11-21T09:33:53;99623.72;;;9.02;69.03
60061;BME280;45933;51.336;12.612;2023-11-21T09:36:18;99621.13;;;9.02;68.97
60061;BME280;45933;51.336;12.612;2023-11-21T09:38:43;99626.34;;;9.02;68.33
60061;BME280;45933;51.336;12.612;2023-11-21T09:41:16;99632.38;;;9.07;68.78
60061;BME280;45933;51.336;12.612;2023-11-21T09:43:46;99623.72;;;9.04;68.54
60061;BME280;45933;51.336;12.612;2023-11-21T09:46:12;99629.78;;;9.01;68.58
60061;BME280;45933;51.336;12.612;2023-11-21T09:48:45;99639.31;;;9.01;68.37
60061;BME280;45933;51.336;12.612;2023-11-21T09:51:12;99637.63;;;8.98;67.92
60061;BME280;45933;51.336;12.612;2023-11-21T09:53:37;99644.53;;;8.96;68.29
60061;BME280;45933;51.336;12.612;2023-11-21T09:56:04;99645.41;;;8.95;68.40
60061;BME280;45933;51.336;12.612;2023-11-21T09:58:30;99648.91;;;8.94;68.65
60061;BME280;45933;51.336;12.612;2023-11-21T10:00:59;99649.75;;;8.95;68.61
60061;BME280;45933;51.336;12.612;2023-11-21T10:03:28;99651.50;;;8.94;68.70
60061;BME280;45933;51.336;12.612;2023-11-21T10:05:56;99656.69;;;8.97;69.05
60061;BME280;45933;51.336;12.612;2023-11-21T10:08:24;99656.69;;;8.97;68.74
60061;BME280;45933;51.336;12.612;2023-11-21T10:10:51;99651.47;;;9.00;69.02
60061;BME280;45933;51.336;12.612;2023-11-21T10:13:18;99660.97;;;9.01;68.66
60061;BME280;45933;51.336;12.612;2023-11-21T10:15:49;99657.50;;;9.04;68.56
60061;BME280;45933;51.336;12.612;2023-11-21T10:18:15;99662.72;;;9.04;68.47
60061;BME280;45933;51.336;12.612;2023-11-21T10:20:41;99671.34;;;9.06;68.28
60061;BME280;45933;51.336;12.612;2023-11-21T10:23:06;99656.63;;;9.06;68.21
60061;BME280;45933;51.336;12.612;2023-11-21T10:25:36;99666.16;;;9.07;68.12
60061;BME280;45933;51.336;12.612;2023-11-21T10:28:02;99661.84;;;9.05;67.52
60061;BME280;45933;51.336;12.612;2023-11-21T10:30:33;99665.31;;;9.04;67.38
60061;BME280;45933;51.336;12.612;2023-11-21T10:32:59;99666.19;;;9.01;67.02
60061;BME280;45933;51.336;12.612;2023-11-21T10:35:44;99672.25;;;9.02;67.54
60061;BME280;45933;51.336;12.612;2023-11-21T10:38:16;99680.09;;;8.91;67.10
60061;BME280;45933;51.336;12.612;2023-11-21T10:40:41;99680.13;;;8.88;67.13
60061;BME280;45933;51.336;12.612;2023-11-21T10:43:08;99680.16;;;8.83;67.35
60061;BME280;45933;51.336;12.612;2023-11-21T10:45:35;99676.69;;;8.78;67.43
60061;BME280;45933;51.336;12.612;2023-11-21T10:48:05;99686.25;;;8.78;67.33
60061;BME280;45933;51.336;12.612;2023-11-21T10:50:32;99687.97;;;8.74;68.06
60061;BME280;45933;51.336;12.612;2023-11-21T10:52:58;99681.09;;;8.70;67.48
60061;BME280;45933;51.336;12.612;2023-11-21T10:55:23;99684.56;;;8.71;67.87
60061;BME280;45933;51.336;12.612;2023-11-21T10:57:52;99688.00;;;8.71;68.09
60061;BME280;45933;51.336;12.612;2023-11-21T11:00:19;99688.00;;;8.68;67.61
60061;BME280;45933;51.336;12.612;2023-11-21T11:02:56;99689.72;;;8.72;67.60
60061;BME280;45933;51.336;12.612;2023-11-21T11:05:30;99690.59;;;8.71;67.34
60061;BME280;45933;51.336;12.612;2023-11-21T11:08:05;99685.41;;;8.70;67.58
60061;BME280;45933;51.336;12.612;2023-11-21T11:10:31;99694.09;;;8.64;67.57
60061;BME280;45933;51.336;12.612;2023-11-21T11:12:57;99701.03;;;8.62;67.28
60061;BME280;45933;51.336;12.612;2023-11-21T11:15:23;99704.50;;;8.62;67.57
60061;BME280;45933;51.336;12.612;2023-11-21T11:17:49;99702.78;;;8.61;67.38
60061;BME280;45933;51.336;12.612;2023-11-21T11:20:16;99701.03;;;8.60;67.52
60061;BME280;45933;51.336;12.612;2023-11-21T11:23:04;99702.78;;;8.61;67.49
60061;BME280;45933;51.336;12.612;2023-11-21T11:29:05;99715.75;;;8.66;67.34
60061;BME280;45933;51.336;12.612;2023-11-21T11:31:48;99716.63;;;8.65;67.40
60061;BME280;45933;51.336;12.612;2023-11-21T11:34:24;99724.41;;;8.65;67.42
60061;BME280;45933;51.336;12.612;2023-11-21T11:37:06;99721.78;;;8.68;67.71
60061;BME280;45933;51.336;12.612;2023-11-21T11:39:37;99728.72;;;8.63;67.56
60061;BME280;45933;51.336;12.612;2023-11-21T11:42:04;99730.47;;;8.62;67.75
60061;BME280;45933;51.336;12.612;2023-11-21T11:47:28;99721.78;;;8.71;67.91
60061;BME280;45933;51.336;12.612;2023-11-21T11:50:11;99733.88;;;8.75;67.56
60061;BME280;45933;51.336;12.612;2023-11-21T11:52:46;99736.50;;;8.69;67.45
60061;BME280;45933;51.336;12.612;2023-11-21T11:55:13;99739.13;;;8.66;67.02
60061;BME280;45933;51.336;12.612;2023-11-21T11:57:40;99742.59;;;8.65;66.94
60061;BME280;45933;51.336;12.612;2023-11-21T12:00:34;99748.63;;;8.69;66.60
60061;BME280;45933;51.336;12.612;2023-11-21T12:03:03;99747.81;;;8.60;66.21
60061;BME280;45933;51.336;12.612;2023-11-21T12:05:32;99746.09;;;8.55;65.96
60061;BME280;45933;51.336;12.612;2023-11-21T12:08:00;99764.28;;;8.50;66.12
60061;BME280;45933;51.336;12.612;2023-11-21T12:10:28;99759.09;;;8.47;66.48
60061;BME280;45933;51.336;12.612;2023-11-21T12:12:55;99762.59;;;8.38;66.25
60061;BME280;45933;51.336;12.612;2023-11-21T12:15:21;99771.19;;;8.33;65.58
60061;BME280;45933;51.336;12.612;2023-11-21T12:17:48;99774.66;;;8.27;65.78
60061;BME280;45933;51.336;12.612;2023-11-21T12:20:15;99768.63;;;8.19;65.47
60061;BME280;45933;51.336;12.612;2023-11-21T12:22:44;99784.22;;;8.10;65.60
60061;BME280;45933;51.336;12.612;2023-11-21T12:25:10;99789.41;;;8.07;66.44
60061;BME280;45933;51.336;12.612;2023-11-21T12:27:35;99793.72;;;7.99;66.31
60061;BME280;45933;51.336;12.612;2023-11-21T12:30:00;99792.00;;;7.98;66.29
60061;BME280;45933;51.336;12.612;2023-11-21T12:32:26;99799.78;;;7.93;66.23
60061;BME280;45933;51.336;12.612;2023-11-21T12:34:51;99806.69;;;7.88;66.09
60061;BME280;45933;51.336;12.612;2023-11-21T12:37:17;99819.69;;;7.88;66.36
60061;BME280;45933;51.336;12.612;2023-11-21T12:39:43;99816.22;;;7.83;66.39
60061;BME280;45933;51.336;12.612;2023-11-21T12:42:09;99820.53;;;7.82;66.36
60061;BME280;45933;51.336;12.612;2023-11-21T12:44:35;99824.88;;;7.80;66.23
60061;BME280;45933;51.336;12.612;2023-11-21T12:47:01;99814.47;;;7.79;65.94
60061;BME280;45933;51.336;12.612;2023-11-21T12:49:26;99817.06;;;7.76;66.07
60061;BME280;45933;51.336;12.612;2023-11-21T12:51:53;99818.81;;;7.75;66.24
60061;BME280;45933;51.336;12.612;2023-11-21T12:54:19;99823.09;;;7.73;65.79
60061;BME280;45933;51.336;12.612;2023-11-21T12:56:45;99834.34;;;7.72;65.69
60061;BME280;45933;51.336;12.612;2023-11-21T12:59:12;99830.00;;;7.70;66.02
60061;BME280;45933;51.336;12.612;2023-11-21T13:01:42;99839.56;;;7.71;65.83
60061;BME280;45933;51.336;12.612;2023-11-21T13:04:07;99840.41;;;7.68;66.17